Time;durP1;ratioP1;P1;durP2;ratioP2;P2;SDS_P1;SDS_P2;PMS_P1;PMS_P2;Temp;Humidity;BMP_temperature;BMP_pressure;BME280_temperature;BME280_humidity;BME280_pressure;Samples;Min_cycle;Max_cycle;Signal;HPM_P1;HPM_P2
2024/04/10 00:01:09;;;;;;;0.00;0.00;;;8.20;1.00;;;;;;10737646;27;20018;-28
2024/04/10 00:06:07;;;;;;;0.00;0.00;;;8.20;1.00;;;;;;10736105;27;20364;-29
2024/04/10 00:11:06;;;;;;;0.00;0.00;;;8.20;1.00;;;;;;10745113;27;20010;-28
2024/04/10 00:16:04;;;;;;;0.00;0.00;;;8.20;1.00;;;;;;10745467;27;19998;-28
2024/04/10 00:21:00;;;;;;;0.08;0.08;;;8.20;1.00;;;;;;10745001;27;20009;-29
2024/04/10 00:26:00;;;;;;;0.00;0.00;;;8.20;1.00;;;;;;10745081;27;19999;-28
2024/04/10 00:30:56;;;;;;;0.00;0.00;;;8.20;1.00;;;;;;10744893;27;20368;-29
2024/04/10 00:35:59;;;;;;;0.05;0.05;;;8.20;1.00;;;;;;10745890;27;20013;-30
2024/04/10 00:40:56;;;;;;;0.00;0.00;;;8.10;1.00;;;;;;10746056;27;20010;-29
2024/04/10 00:46:04;;;;;;;0.00;0.00;;;8.10;1.00;;;;;;10744640;27;20038;-29
2024/04/10 00:51:01;;;;;;;0.00;0.00;;;8.20;1.00;;;;;;10744486;27;20337;-29
2024/04/10 00:55:59;;;;;;;0.00;0.00;;;8.20;1.00;;;;;;10744162;27;20353;-29
2024/04/10 01:00:56;;;;;;;0.00;0.00;;;8.20;1.00;;;;;;10786829;27;20009;-30
2024/04/10 01:05:58;;;;;;;0.00;0.00;;;8.20;1.00;;;;;;10812699;27;20005;-29
2024/04/10 01:10:59;;;;;;;0.00;0.00;;;8.10;1.00;;;;;;10813013;26;20024;-30
2024/04/10 01:15:56;;;;;;;0.00;0.00;;;8.20;20.10;;;;;;10809855;27;20026;-29
2024/04/10 01:20:54;;;;;;;0.10;0.10;;;8.10;99.90;;;;;;10810729;27;20060;-30
2024/04/10 01:25:51;;;;;;;0.10;0.10;;;8.10;99.90;;;;;;10811973;27;20006;-29
2024/04/10 01:30:49;;;;;;;0.00;0.00;;;8.00;99.90;;;;;;10812394;27;20002;-28
2024/04/10 01:35:46;;;;;;;0.00;0.00;;;8.00;99.90;;;;;;10812347;26;20014;-29
2024/04/10 01:40:44;;;;;;;0.00;0.00;;;7.90;99.90;;;;;;10810469;27;20080;-30
2024/04/10 01:45:42;;;;;;;0.00;0.00;;;7.90;99.90;;;;;;10811431;27;20005;-29
2024/04/10 01:50:40;;;;;;;0.00;0.00;;;7.90;99.90;;;;;;10812346;26;20013;-29
2024/04/10 01:55:36;;;;;;;0.00;0.00;;;7.90;1.00;;;;;;10811747;26;20343;-30
2024/04/10 02:00:36;;;;;;;0.00;0.00;;;7.80;99.90;;;;;;10812553;27;20017;-29
2024/04/10 02:05:33;;;;;;;0.00;0.00;;;7.80;99.90;;;;;;10811914;26;20068;-29
2024/04/10 02:10:31;;;;;;;0.00;0.00;;;7.80;99.90;;;;;;10813150;27;20072;-29
2024/04/10 02:15:27;;;;;;;0.00;0.00;;;8.00;99.90;;;;;;10810993;27;19997;-30
2024/04/10 02:20:23;;;;;;;0.00;0.00;;;7.90;99.90;;;;;;10811290;26;20009;-30
2024/04/10 02:25:21;;;;;;;0.00;0.00;;;8.00;99.90;;;;;;10812474;27;20006;-29
2024/04/10 02:30:17;;;;;;;0.00;0.00;;;7.90;99.90;;;;;;10810265;27;19997;-29
2024/04/10 02:35:14;;;;;;;0.00;0.00;;;7.80;99.90;;;;;;10812095;27;20068;-29
2024/04/10 02:40:12;;;;;;;0.00;0.00;;;7.80;99.90;;;;;;10811276;27;20328;-29
2024/04/10 02:45:09;;;;;;;0.00;0.00;;;7.60;99.90;;;;;;10810796;27;20005;-29
2024/04/10 02:50:07;;;;;;;0.00;0.00;;;7.60;1.00;;;;;;10808230;27;20444;-29
2024/04/10 02:56:36;;;;;;;0.00;0.00;;;7.60;99.90;;;;;;11062915;26;20944;-31
2024/04/10 03:01:33;;;;;;;0.00;0.00;;;7.50;1.00;;;;;;11060545;26;20000;-30
2024/04/10 03:06:30;;;;;;;0.00;0.00;;;7.60;99.90;;;;;;11062658;26;19996;-30
2024/04/10 03:11:27;;;;;;;0.10;0.10;;;7.60;99.90;;;;;;11062735;26;20256;-30
2024/04/10 03:16:25;;;;;;;0.10;0.10;;;7.50;1.00;;;;;;11060791;26;19999;-29
2024/04/10 03:21:22;;;;;;;0.00;0.00;;;7.60;1.00;;;;;;11060746;26;20006;-31
2024/04/10 03:26:20;;;;;;;0.00;0.00;;;7.40;1.00;;;;;;11056960;26;20042;-30
2024/04/10 03:31:17;;;;;;;0.00;0.00;;;7.40;1.00;;;;;;11057936;26;20069;-30
2024/04/10 03:36:15;;;;;;;0.00;0.00;;;7.50;1.00;;;;;;11057890;26;20632;-31
2024/04/10 03:41:12;;;;;;;0.00;0.00;;;7.50;1.00;;;;;;11056806;26;19995;-29
2024/04/10 03:46:11;;;;;;;0.00;0.00;;;7.50;1.00;;;;;;11054220;26;20576;-27
2024/04/10 03:51:08;;;;;;;0.00;0.00;;;7.40;1.00;;;;;;11054750;26;20671;-27
2024/04/10 03:56:06;;;;;;;0.00;0.00;;;7.40;1.00;;;;;;11055156;26;20280;-28
2024/04/10 04:01:04;;;;;;;0.00;0.00;;;7.40;1.00;;;;;;11054142;26;20010;-29
2024/04/10 04:06:01;;;;;;;0.05;0.05;;;7.40;1.00;;;;;;11033123;26;20253;-29
2024/04/10 04:10:58;;;;;;;0.00;0.00;;;7.30;1.00;;;;;;11018534;26;20041;-29
2024/04/10 04:15:54;;;;;;;0.00;0.00;;;7.30;1.00;;;;;;11024985;26;20066;-28
2024/04/10 04:20:51;;;;;;;0.00;0.00;;;7.40;1.00;;;;;;10982037;26;20004;-28
2024/04/10 04:25:49;;;;;;;0.05;0.05;;;7.30;1.00;;;;;;11012366;26;20007;-29
2024/04/10 04:30:49;;;;;;;0.10;0.10;;;7.10;1.00;;;;;;11018573;26;20372;-30
2024/04/10 04:35:50;;;;;;;0.00;0.00;;;7.10;1.00;;;;;;11023939;26;20008;-29
2024/04/10 04:40:47;;;;;;;0.00;0.00;;;6.90;1.00;;;;;;11022605;26;20061;-29
2024/04/10 04:45:43;;;;;;;0.00;0.00;;;6.90;1.00;;;;;;11019198;26;20010;-29
2024/04/10 04:50:42;;;;;;;0.00;0.00;;;7.00;1.00;;;;;;11007226;26;21583;-30
2024/04/10 04:55:43;;;;;;;0.10;0.10;;;6.90;1.00;;;;;;11017325;26;20007;-29
2024/04/10 05:00:42;;;;;;;0.10;0.10;;;6.90;1.00;;;;;;11013684;26;20038;-29
2024/04/10 05:05:41;;;;;;;0.00;0.00;;;6.70;1.00;;;;;;10988775;26;20004;-30
2024/04/10 05:10:39;;;;;;;0.00;0.00;;;6.70;1.00;;;;;;11014558;26;20003;-29
2024/04/10 05:15:37;;;;;;;0.00;0.00;;;6.70;1.00;;;;;;11008532;26;20011;-29
2024/04/10 05:20:33;;;;;;;0.10;0.10;;;6.70;1.00;;;;;;10987126;26;20000;-30
2024/04/10 05:25:31;;;;;;;0.10;0.10;;;6.70;1.00;;;;;;10978373;26;20000;-30
2024/04/10 05:30:28;;;;;;;0.00;0.00;;;6.80;1.00;;;;;;10984857;26;20553;-30
2024/04/10 05:35:26;;;;;;;0.00;0.00;;;6.80;1.00;;;;;;10984213;26;20424;-29
2024/04/10 05:40:24;;;;;;;0.00;0.00;;;7.00;1.00;;;;;;10984827;26;20447;-29
2024/04/10 05:45:20;;;;;;;0.10;0.10;;;7.00;1.00;;;;;;10996313;26;20003;-28
2024/04/10 05:50:19;;;;;;;0.00;0.00;;;7.00;1.00;;;;;;10959920;26;20014;-28
2024/04/10 05:55:16;;;;;;;0.08;0.08;;;6.90;1.00;;;;;;10990573;26;20000;-29
2024/04/10 06:00:14;;;;;;;0.00;0.00;;;6.90;1.00;;;;;;10980339;26;20615;-29
2024/04/10 06:05:12;;;;;;;0.00;0.00;;;7.00;1.00;;;;;;10980330;26;20007;-31
2024/04/10 06:10:08;;;;;;;0.00;0.00;;;6.80;1.00;;;;;;10963644;26;20487;-30
2024/04/10 06:15:05;;;;;;;0.00;0.00;;;6.90;1.00;;;;;;10933142;26;20015;-28
2024/04/10 06:20:05;;;;;;;0.00;0.00;;;7.00;1.00;;;;;;10963992;26;19999;-28
2024/04/10 06:25:02;;;;;;;0.00;0.00;;;7.10;1.00;;;;;;10960997;26;20019;-29
2024/04/10 06:29:59;;;;;;;0.00;0.00;;;7.20;1.00;;;;;;10979701;26;20015;-28
2024/04/10 06:34:57;;;;;;;0.00;0.00;;;7.40;1.00;;;;;;10976614;26;20000;-29
2024/04/10 06:39:54;;;;;;;0.00;0.00;;;7.40;99.90;;;;;;10970828;26;20119;-30
2024/04/10 06:44:51;;;;;;;0.00;0.00;;;7.30;1.00;;;;;;10951004;26;19992;-30
2024/04/10 06:49:51;;;;;;;0.03;0.03;;;7.70;99.90;;;;;;10967622;26;20297;-30
2024/04/10 06:54:48;;;;;;;0.00;0.00;;;7.70;99.90;;;;;;10972737;26;20003;-31
2024/04/10 06:59:48;;;;;;;0.00;0.00;;;7.80;99.90;;;;;;11004582;26;20043;-30
2024/04/10 07:04:48;;;;;;;0.00;0.00;;;8.10;1.00;;;;;;10982235;26;20711;-29
2024/04/10 07:09:46;;;;;;;0.00;0.00;;;8.20;1.00;;;;;;10985910;26;20032;-29
2024/04/10 07:14:43;;;;;;;0.00;0.00;;;8.40;99.90;;;;;;11001776;26;20004;-29
2024/04/10 07:19:41;;;;;;;0.00;0.00;;;8.50;99.90;;;;;;10976941;26;20013;-28
2024/04/10 07:24:38;;;;;;;0.00;0.00;;;8.60;1.00;;;;;;10995123;26;20003;-28
2024/04/10 07:29:35;;;;;;;0.00;0.00;;;8.60;1.00;;;;;;10998970;26;20423;-29
2024/04/10 07:34:32;;;;;;;0.00;0.00;;;9.00;1.00;;;;;;10993613;26;20073;-30
2024/04/10 07:39:30;;;;;;;0.00;0.00;;;9.30;99.90;;;;;;10999229;26;20011;-29
2024/04/10 07:44:27;;;;;;;0.00;0.00;;;9.20;99.90;;;;;;11008088;26;20069;-29
2024/04/10 07:49:25;;;;;;;0.00;0.00;;;9.30;1.00;;;;;;11007909;26;20562;-30
2024/04/10 07:54:24;;;;;;;0.00;0.00;;;9.60;1.00;;;;;;11003065;26;20095;-30
2024/04/10 07:59:23;;;;;;;0.00;0.00;;;9.60;1.00;;;;;;11007174;26;20015;-29
2024/04/10 08:04:20;;;;;;;0.10;0.10;;;9.50;1.00;;;;;;11002225;26;20061;-30
2024/04/10 08:09:19;;;;;;;0.10;0.10;;;9.90;1.00;;;;;;10996571;26;20000;-30
2024/04/10 08:14:21;;;;;;;0.00;0.00;;;10.40;1.00;;;;;;10992479;26;19999;-30
2024/04/10 08:19:20;;;;;;;0.00;0.00;;;10.60;1.00;;;;;;11008029;26;20000;-30
2024/04/10 08:24:19;;;;;;;0.00;0.00;;;10.50;1.00;;;;;;10992716;26;20374;-30
2024/04/10 08:29:17;;;;;;;0.00;0.00;;;10.90;1.00;;;;;;10998638;26;19999;-30
2024/04/10 08:34:14;;;;;;;0.00;0.00;;;11.00;1.00;;;;;;11000835;26;20063;-29
2024/04/10 08:39:12;;;;;;;0.00;0.00;;;10.80;1.00;;;;;;11003067;26;20009;-30
2024/04/10 08:44:11;;;;;;;0.00;0.00;;;11.30;1.00;;;;;;11004759;26;20463;-30
2024/04/10 08:49:09;;;;;;;0.00;0.00;;;11.20;1.00;;;;;;11000642;26;20014;-30
2024/04/10 08:54:08;;;;;;;0.00;0.00;;;11.50;99.90;;;;;;11011653;26;20055;-31
2024/04/10 08:59:08;;;;;;;0.00;0.00;;;11.50;1.00;;;;;;11013269;26;19999;-30
2024/04/10 09:04:09;;;;;;;0.00;0.00;;;11.50;1.00;;;;;;11010137;26;20004;-31
2024/04/10 09:09:07;;;;;;;0.00;0.00;;;11.00;99.90;;;;;;11012368;26;19995;-30
2024/04/10 09:14:07;;;;;;;0.00;0.00;;;10.80;99.90;;;;;;11008741;26;19999;-30
2024/04/10 09:19:13;;;;;;;0.00;0.00;;;11.10;99.90;;;;;;11010084;26;20087;-32
2024/04/10 09:24:14;;;;;;;0.00;0.00;;;11.20;1.00;;;;;;11010170;26;20357;-30
2024/04/10 09:29:18;;;;;;;0.00;0.00;;;11.00;1.00;;;;;;11005515;26;20018;-30
2024/04/10 09:34:21;;;;;;;0.00;0.00;;;11.20;1.00;;;;;;11006900;26;20242;-30
2024/04/10 09:39:22;;;;;;;0.00;0.00;;;11.50;1.00;;;;;;11008465;26;20326;-30
2024/04/10 09:44:21;;;;;;;0.00;0.00;;;11.90;99.90;;;;;;10953864;26;20016;-31
2024/04/10 09:49:23;;;;;;;0.00;0.00;;;12.40;8.80;;;;;;10955383;26;20015;-30
2024/04/10 09:54:21;;;;;;;0.00;0.00;;;12.90;1.00;;;;;;11003874;26;20011;-31
2024/04/10 09:59:19;;;;;;;0.00;0.00;;;13.40;1.00;;;;;;11005068;26;20011;-31
2024/04/10 10:04:17;;;;;;;0.00;0.00;;;13.50;99.90;;;;;;10982541;26;20004;-29
2024/04/10 10:09:24;;;;;;;0.00;0.00;;;12.60;99.90;;;;;;10965580;26;20011;-30
2024/04/10 10:14:26;;;;;;;0.00;0.00;;;13.10;99.90;;;;;;10969246;26;20015;-31
2024/04/10 10:19:26;;;;;;;0.00;0.00;;;16.20;12.10;;;;;;10999647;26;20006;-30
2024/04/10 10:24:23;;;;;;;0.00;0.00;;;15.10;1.00;;;;;;11001826;26;20000;-32
2024/04/10 10:29:22;;;;;;;0.00;0.00;;;13.70;1.00;;;;;;10980613;26;20004;-29
2024/04/10 10:34:24;;;;;;;0.00;0.00;;;13.50;1.00;;;;;;10996656;26;20003;-30
2024/04/10 10:39:26;;;;;;;0.00;0.00;;;13.10;1.00;;;;;;10984817;26;20008;-30
2024/04/10 10:44:23;;;;;;;0.00;0.00;;;13.40;12.80;;;;;;10977461;26;19991;-30
2024/04/10 10:49:23;;;;;;;0.00;0.00;;;13.40;1.00;;;;;;10986074;26;20039;-30
2024/04/10 10:54:23;;;;;;;0.00;0.00;;;12.80;1.00;;;;;;10985970;26;20011;-30
2024/04/10 10:59:34;;;;;;;0.00;0.00;;;12.50;1.00;;;;;;10972243;26;20048;-30
2024/04/10 11:04:34;;;;;;;0.00;0.00;;;12.60;1.00;;;;;;10998681;26;20003;-30
2024/04/10 11:09:35;;;;;;;0.00;0.00;;;13.00;1.00;;;;;;11000451;26;20004;-30
2024/04/10 11:14:33;;;;;;;0.00;0.00;;;14.40;1.00;;;;;;10997778;26;20347;-30
2024/04/10 11:19:33;;;;;;;0.00;0.00;;;15.90;1.00;;;;;;11005086;26;20091;-30
2024/04/10 11:24:31;;;;;;;0.00;0.00;;;14.70;1.00;;;;;;11002572;26;20257;-30
2024/04/10 11:29:29;;;;;;;0.00;0.00;;;16.30;1.00;;;;;;10984555;26;20416;-31
2024/04/10 11:34:26;;;;;;;0.00;0.00;;;18.80;42.70;;;;;;10966576;26;20000;-30
2024/04/10 11:39:25;;;;;;;0.00;0.00;;;17.00;1.00;;;;;;10991641;26;20000;-30
2024/04/10 11:44:25;;;;;;;0.00;0.00;;;17.30;1.00;;;;;;11001760;26;20014;-30
2024/04/10 11:49:25;;;;;;;0.00;0.00;;;16.60;1.00;;;;;;10965321;26;20004;-30
2024/04/10 11:54:23;;;;;;;0.00;0.00;;;15.70;1.00;;;;;;11004885;26;20019;-30
2024/04/10 11:59:20;;;;;;;0.00;0.00;;;17.00;1.00;;;;;;10964736;26;20011;-31
2024/04/10 12:04:17;;;;;;;0.00;0.00;;;20.60;1.00;;;;;;11004317;26;19999;-31
2024/04/10 12:09:14;;;;;;;0.00;0.00;;;20.20;1.00;;;;;;10984289;26;19995;-31
2024/04/10 12:14:12;;;;;;;0.00;0.00;;;21.70;99.90;;;;;;11004390;26;20114;-30
2024/04/10 12:19:09;;;;;;;0.00;0.00;;;21.60;99.90;;;;;;10980840;26;20019;-30
2024/04/10 12:24:09;;;;;;;0.00;0.00;;;20.20;1.00;;;;;;11006047;26;20014;-30
2024/04/10 12:29:06;;;;;;;0.00;0.00;;;18.50;1.00;;;;;;10975769;26;19999;-30
2024/04/10 12:34:04;;;;;;;0.00;0.00;;;16.40;1.00;;;;;;11008069;26;20007;-30
2024/04/10 12:39:04;;;;;;;0.00;0.00;;;15.70;99.90;;;;;;11006627;26;20010;-30
2024/04/10 12:44:02;;;;;;;0.00;0.00;;;15.60;99.90;;;;;;11003343;26;20004;-31
2024/04/10 12:49:00;;;;;;;0.00;0.00;;;15.30;99.90;;;;;;11006068;26;20014;-30
2024/04/10 12:53:58;;;;;;;0.00;0.00;;;14.60;99.90;;;;;;11002546;26;20014;-30
2024/04/10 12:58:58;;;;;;;0.00;0.00;;;14.60;99.90;;;;;;10959302;26;20032;-30
2024/04/10 13:03:54;;;;;;;0.00;0.00;;;14.50;99.90;;;;;;10987093;26;20510;-29
2024/04/10 13:08:56;;;;;;;0.00;0.00;;;14.20;99.90;;;;;;10989770;26;19999;-30
2024/04/10 13:13:54;;;;;;;0.00;0.00;;;14.20;99.90;;;;;;11002099;26;20008;-30
2024/04/10 13:18:52;;;;;;;0.00;0.00;;;14.00;99.90;;;;;;11007418;26;20073;-30
2024/04/10 13:23:51;;;;;;;0.00;0.00;;;14.00;99.90;;;;;;11004683;26;20346;-31
2024/04/10 13:28:49;;;;;;;0.00;0.00;;;13.90;99.90;;;;;;10993443;26;20641;-30
2024/04/10 13:33:50;;;;;;;0.00;0.00;;;13.80;99.90;;;;;;11005353;26;19995;-29
2024/04/10 13:38:51;;;;;;;0.00;0.00;;;14.30;99.90;;;;;;11001402;26;20007;-29
2024/04/10 13:43:54;;;;;;;0.00;0.00;;;16.00;99.90;;;;;;10997936;26;20014;-29
2024/04/10 13:48:54;;;;;;;0.00;0.00;;;17.80;99.90;;;;;;10983046;26;19999;-31
2024/04/10 13:53:53;;;;;;;0.00;0.00;;;18.90;99.90;;;;;;11001064;26;20007;-31
2024/04/10 13:58:50;;;;;;;0.00;0.00;;;20.30;99.90;;;;;;10994246;26;20618;-31
2024/04/10 14:03:52;;;;;;;0.00;0.00;;;18.90;99.90;;;;;;10988954;26;20014;-30
2024/04/10 14:08:55;;;;;;;0.00;0.00;;;17.20;99.90;;;;;;11003909;26;20014;-31
2024/04/10 14:13:53;;;;;;;0.00;0.00;;;17.20;99.90;;;;;;11005672;26;20035;-30
2024/04/10 14:18:53;;;;;;;0.00;0.00;;;16.90;99.90;;;;;;11001267;26;20011;-31
2024/04/10 14:23:53;;;;;;;0.00;0.00;;;15.90;99.90;;;;;;11002386;26;20003;-31
2024/04/10 14:28:51;;;;;;;0.00;0.00;;;15.50;99.90;;;;;;10990223;26;20518;-30
2024/04/10 14:33:51;;;;;;;0.00;0.00;;;15.50;99.90;;;;;;10994556;26;20086;-30
2024/04/10 14:38:49;;;;;;;0.00;0.00;;;14.90;99.90;;;;;;10982671;26;20011;-30
2024/04/10 14:43:49;;;;;;;0.00;0.00;;;14.60;99.90;;;;;;11001961;26;20343;-30
2024/04/10 14:48:48;;;;;;;0.00;0.00;;;14.50;99.90;;;;;;11001114;26;19991;-31
2024/04/10 14:53:49;;;;;;;0.00;0.00;;;15.00;99.90;;;;;;10991861;26;20011;-30
2024/04/10 14:58:47;;;;;;;0.00;0.00;;;14.70;99.90;;;;;;11000508;26;20056;-30
2024/04/10 15:03:48;;;;;;;0.00;0.00;;;15.00;99.90;;;;;;10987881;26;20006;-30
2024/04/10 15:08:46;;;;;;;0.00;0.00;;;15.10;99.90;;;;;;10998790;26;20007;-31
2024/04/10 15:13:45;;;;;;;0.00;0.00;;;15.40;99.90;;;;;;10999201;26;20643;-31
2024/04/10 15:18:43;;;;;;;0.00;0.00;;;15.10;99.90;;;;;;10999161;26;20011;-30
2024/04/10 15:23:42;;;;;;;0.00;0.00;;;15.30;99.90;;;;;;10978143;26;19997;-30
2024/04/10 15:28:45;;;;;;;0.00;0.00;;;15.50;99.90;;;;;;10987177;26;19995;-31
2024/04/10 15:33:45;;;;;;;0.00;0.00;;;15.20;99.90;;;;;;10976906;26;20015;-30
2024/04/10 15:38:47;;;;;;;0.00;0.00;;;15.30;99.90;;;;;;10996472;26;20014;-30
2024/04/10 15:43:44;;;;;;;0.00;0.00;;;15.00;99.90;;;;;;10995961;26;20652;-30
2024/04/10 15:48:45;;;;;;;0.00;0.00;;;14.60;99.90;;;;;;11017054;26;19999;-30
2024/04/10 15:53:44;;;;;;;0.00;0.00;;;14.70;99.90;;;;;;10996562;26;20015;-30
2024/04/10 15:58:44;;;;;;;0.00;0.00;;;15.20;99.90;;;;;;10993220;26;20030;-30
2024/04/10 16:03:46;;;;;;;0.00;0.00;;;15.00;99.90;;;;;;10962273;26;20004;-30
2024/04/10 16:08:49;;;;;;;0.00;0.00;;;14.50;99.90;;;;;;11002691;26;19992;-30
2024/04/10 16:13:49;;;;;;;0.00;0.00;;;15.00;99.90;;;;;;11005224;26;20333;-31
2024/04/10 16:18:55;;;;;;;0.00;0.00;;;15.10;99.90;;;;;;10973028;26;20015;-30
2024/04/10 16:23:52;;;;;;;0.00;0.00;;;15.50;99.90;;;;;;11003261;26;19991;-30
2024/04/10 16:28:50;;;;;;;0.00;0.00;;;15.70;99.90;;;;;;11006656;26;20022;-30
2024/04/10 16:33:49;;;;;;;0.00;0.00;;;15.30;99.90;;;;;;11008616;26;19995;-30
2024/04/10 16:38:47;;;;;;;0.00;0.00;;;15.40;99.90;;;;;;11009978;26;20011;-30
2024/04/10 16:43:46;;;;;;;0.00;0.00;;;15.80;99.90;;;;;;11004188;26;20007;-31
2024/04/10 16:48:44;;;;;;;0.00;0.00;;;15.70;99.90;;;;;;10971052;26;20036;-30
2024/04/10 16:53:43;;;;;;;0.00;0.00;;;15.20;99.90;;;;;;11003413;26;20303;-31
2024/04/10 16:58:41;;;;;;;0.00;0.00;;;14.90;99.90;;;;;;11021517;26;20007;-30
2024/04/10 17:03:40;;;;;;;0.00;0.00;;;14.80;99.90;;;;;;11009467;26;20019;-29
2024/04/10 17:08:38;;;;;;;0.00;0.00;;;14.80;99.90;;;;;;10981251;26;20678;-30
2024/04/10 17:13:35;;;;;;;0.00;0.00;;;14.80;99.90;;;;;;11010518;26;20011;-30
2024/04/10 17:23:50;;;;;;;0.00;0.00;;;14.30;99.90;;;;;;11010156;26;20465;-29
2024/04/10 17:28:48;;;;;;;0.00;0.00;;;14.20;99.90;;;;;;11002285;26;20014;-29
2024/04/10 17:33:45;;;;;;;0.00;0.00;;;14.10;99.90;;;;;;11007587;26;20372;-29
2024/04/10 17:38:42;;;;;;;0.00;0.00;;;13.90;99.90;;;;;;11005547;26;20007;-29
2024/04/10 17:43:40;;;;;;;0.00;0.00;;;13.80;99.90;;;;;;11013522;26;20549;-29
2024/04/10 17:48:38;;;;;;;0.00;0.00;;;13.40;99.90;;;;;;10985500;26;19991;-29
2024/04/10 17:53:35;;;;;;;0.00;0.00;;;13.40;99.90;;;;;;11011001;26;20015;-29
2024/04/10 17:58:32;;;;;;;0.00;0.00;;;13.30;99.90;;;;;;11012283;26;20003;-29
2024/04/10 18:03:32;;;;;;;0.00;0.00;;;13.20;99.90;;;;;;11011593;26;19995;-29
2024/04/10 18:08:31;;;;;;;0.00;0.00;;;12.90;99.90;;;;;;11011980;26;19996;-29
2024/04/10 18:13:28;;;;;;;0.00;0.00;;;12.70;99.90;;;;;;11011553;26;20584;-29
2024/04/10 18:18:24;;;;;;;0.00;0.00;;;12.60;99.90;;;;;;10990433;26;20613;-29
2024/04/10 18:23:21;;;;;;;0.00;0.00;;;12.60;99.90;;;;;;10986353;26;20023;-29
2024/04/10 18:28:17;;;;;;;0.00;0.00;;;12.50;99.90;;;;;;11008367;26;20003;-29
2024/04/10 18:33:15;;;;;;;0.00;0.00;;;12.40;99.90;;;;;;11012968;26;20077;-29
2024/04/10 18:38:12;;;;;;;0.00;0.00;;;12.20;99.90;;;;;;11010157;26;20073;-30
2024/04/10 18:43:10;;;;;;;0.00;0.00;;;12.10;99.90;;;;;;11012666;26;20003;-30
2024/04/10 18:48:07;;;;;;;0.00;0.00;;;12.10;99.90;;;;;;10983920;26;20011;-29
2024/04/10 18:53:03;;;;;;;0.00;0.00;;;12.20;99.90;;;;;;10995664;26;20012;-29
2024/04/10 18:58:00;;;;;;;0.00;0.00;;;12.10;99.90;;;;;;11012034;26;20007;-29
2024/04/10 19:03:02;;;;;;;0.00;0.00;;;12.00;99.90;;;;;;11014492;26;19995;-29
2024/04/10 19:07:59;;;;;;;0.00;0.00;;;12.00;99.90;;;;;;11011133;26;20374;-30
2024/04/10 19:12:55;;;;;;;0.00;0.00;;;11.90;99.90;;;;;;11014391;26;20061;-30
2024/04/10 19:17:53;;;;;;;0.00;0.00;;;11.90;99.90;;;;;;11002607;26;20003;-29
2024/04/10 19:22:50;;;;;;;0.00;0.00;;;11.70;1.00;;;;;;11012065;26;20015;-30
2024/04/10 19:27:49;;;;;;;0.00;0.00;;;11.70;1.00;;;;;;11015616;26;20252;-29
2024/04/10 19:32:46;;;;;;;0.00;0.00;;;11.60;1.00;;;;;;11015632;26;19996;-29
2024/04/10 19:37:43;;;;;;;0.00;0.00;;;11.50;99.90;;;;;;10988889;26;20011;-30
2024/04/10 19:42:40;;;;;;;0.00;0.00;;;11.50;99.90;;;;;;11007338;26;20011;-30
2024/04/10 19:47:38;;;;;;;0.00;0.00;;;11.30;18.10;;;;;;10988336;26;20008;-30
2024/04/10 19:52:35;;;;;;;0.00;0.00;;;11.40;1.00;;;;;;11001183;26;20019;-31
2024/04/10 19:57:34;;;;;;;0.00;0.00;;;11.40;1.00;;;;;;11019850;26;20494;-30
2024/04/10 20:02:31;;;;;;;0.00;0.00;;;11.30;1.00;;;;;;11024765;26;19999;-30
2024/04/10 20:07:27;;;;;;;0.00;0.00;;;11.10;1.00;;;;;;11021129;26;19992;-30
2024/04/10 20:12:23;;;;;;;0.00;0.00;;;11.00;4.70;;;;;;11023304;26;20011;-31
2024/04/10 20:17:20;;;;;;;0.00;0.00;;;11.00;1.00;;;;;;11025009;26;20000;-30
2024/04/10 20:22:17;;;;;;;0.00;0.00;;;10.80;1.00;;;;;;11024472;26;20072;-30
2024/04/10 20:27:14;;;;;;;0.00;0.00;;;10.70;42.80;;;;;;11024976;26;20032;-30
2024/04/10 20:32:11;;;;;;;0.00;0.00;;;10.50;99.90;;;;;;11022240;26;20073;-31
2024/04/10 20:37:09;;;;;;;0.00;0.00;;;10.40;99.90;;;;;;11023825;26;20003;-30
2024/04/10 20:42:06;;;;;;;0.00;0.00;;;10.30;82.80;;;;;;11024704;26;20010;-30
2024/04/10 20:47:03;;;;;;;0.00;0.00;;;10.30;1.00;;;;;;10988840;26;19996;-31
2024/04/10 20:51:59;;;;;;;0.00;0.00;;;10.00;1.00;;;;;;10950201;26;20007;-30
2024/04/10 20:56:56;;;;;;;0.00;0.00;;;10.00;1.00;;;;;;10982853;26;20003;-30
2024/04/10 21:01:54;;;;;;;0.00;0.00;;;10.00;1.00;;;;;;11017817;26;20422;-29
2024/04/10 22:15:00;;;;;;;0.00;0.00;;;8.90;99.90;;;;;;11024995;26;20245;-30
2024/04/10 22:25:14;;;;;;;0.00;0.00;;;9.00;91.60;;;;;;11017311;26;20360;-30
2024/04/10 22:30:13;;;;;;;0.10;0.10;;;9.00;99.90;;;;;;11001720;26;19999;-30
2024/04/10 22:35:10;;;;;;;0.00;0.00;;;9.00;99.90;;;;;;11022876;26;19995;-29
2024/04/10 22:40:09;;;;;;;0.00;0.00;;;8.90;99.90;;;;;;11019633;26;20011;-30
2024/04/10 22:45:06;;;;;;;0.00;0.00;;;8.70;1.00;;;;;;11022364;26;20077;-30
2024/04/10 22:50:03;;;;;;;0.00;0.00;;;8.70;1.00;;;;;;11019335;26;19995;-31
2024/04/10 22:55:04;;;;;;;0.00;0.00;;;8.60;1.00;;;;;;11019043;26;20034;-30
2024/04/10 23:00:02;;;;;;;0.00;0.00;;;8.50;99.90;;;;;;11022247;26;20010;-31
2024/04/10 23:05:01;;;;;;;0.00;0.00;;;8.30;1.00;;;;;;11021988;26;20012;-30
2024/04/10 23:09:58;;;;;;;0.00;0.00;;;8.20;1.00;;;;;;11019563;26;19995;-30
2024/04/10 23:14:55;;;;;;;0.10;0.10;;;8.00;1.00;;;;;;11027341;26;20073;-30
2024/04/10 23:19:51;;;;;;;0.00;0.00;;;7.80;99.90;;;;;;11025570;26;20004;-30
2024/04/10 23:24:49;;;;;;;0.00;0.00;;;7.80;1.00;;;;;;11029779;26;20010;-30
2024/04/10 23:29:52;;;;;;;0.00;0.00;;;7.70;1.00;;;;;;11030479;26;19996;-29
2024/04/10 23:34:52;;;;;;;0.10;0.10;;;7.60;1.00;;;;;;10948958;26;20008;-29
2024/04/10 23:39:50;;;;;;;0.00;0.00;;;7.50;1.00;;;;;;10950687;26;20031;-31
2024/04/10 23:44:46;;;;;;;0.00;0.00;;;7.50;1.00;;;;;;10954977;26;19992;-30
2024/04/10 23:49:42;;;;;;;0.00;0.00;;;7.50;1.00;;;;;;10954626;26;20066;-31
2024/04/10 23:54:39;;;;;;;0.00;0.00;;;7.40;1.00;;;;;;11026091;26;19996;-31
2024/04/10 23:59:37;;;;;;;0.00;0.00;;;7.40;1.00;;;;;;11027442;26;19999;-29
